Time;durP1;ratioP1;P1;durP2;ratioP2;P2;SDS_P1;SDS_P2;PMS_P1;PMS_P2;Temp;Humidity;BMP_temperature;BMP_pressure;BME280_temperature;BME280_humidity;BME280_pressure;Samples;Min_cycle;Max_cycle;Signal;HPM_P1;HPM_P2
2022/08/29 00:02:14;;;;;;;15.88;4.43;;;;;;;14.76;100.00;102017.53;5042294;28;20504;-71
2022/08/29 00:04:40;;;;;;;15.30;4.47;;;;;;;14.73;100.00;102017.50;5045903;28;20029;-62
2022/08/29 00:07:05;;;;;;;18.50;5.03;;;;;;;14.75;100.00;102021.97;5043261;28;20022;-61
2022/08/29 00:09:31;;;;;;;18.23;5.30;;;;;;;14.66;100.00;102021.00;5044349;28;20024;-63
2022/08/29 00:11:56;;;;;;;16.65;5.03;;;;;;;14.67;100.00;102022.81;5044048;28;20039;-65
2022/08/29 00:14:21;;;;;;;17.05;5.40;;;;;;;14.62;100.00;102026.31;5043195;28;20029;-63
2022/08/29 00:16:47;;;;;;;18.63;5.70;;;;;;;14.58;100.00;102028.91;5045390;28;20020;-62
2022/08/29 00:19:12;;;;;;;19.05;5.72;;;;;;;14.44;100.00;102027.03;5042441;28;20075;-62
2022/08/29 00:21:38;;;;;;;18.73;6.03;;;;;;;14.35;100.00;102015.44;5045082;28;20361;-64
2022/08/29 00:24:03;;;;;;;17.10;5.50;;;;;;;14.23;100.00;102025.13;5042694;28;20048;-62
2022/08/29 00:26:28;;;;;;;19.20;5.95;;;;;;;14.22;100.00;102014.47;5043860;28;20092;-61
2022/08/29 00:28:54;;;;;;;19.42;6.32;;;;;;;14.11;100.00;102014.34;5043884;28;20017;-62
2022/08/29 00:31:19;;;;;;;19.52;5.90;;;;;;;14.03;100.00;102013.44;5042470;28;20037;-62
2022/08/29 00:33:45;;;;;;;18.88;6.07;;;;;;;13.99;100.00;102016.94;5045679;28;20048;-61
2022/08/29 00:36:10;;;;;;;19.10;6.07;;;;;;;13.92;100.00;102016.88;5040966;28;20449;-62
2022/08/29 00:38:36;;;;;;;19.45;6.53;;;;;;;13.74;100.00;102024.66;5044623;28;20124;-62
2022/08/29 00:41:03;;;;;;;19.00;6.22;;;;;;;13.60;100.00;102027.16;5042811;28;20104;-63
2022/08/29 00:43:34;;;;;;;18.90;6.22;;;;;;;13.53;100.00;102025.34;5043659;28;20486;-62
2022/08/29 00:46:29;;;;;;;20.80;6.93;;;;;;;13.53;100.00;102026.25;5041785;28;20037;-62
2022/08/29 00:48:57;;;;;;;19.25;6.50;;;;;;;13.46;100.00;102035.00;5040687;28;20030;-68
2022/08/29 00:51:23;;;;;;;20.17;6.90;;;;;;;13.39;100.00;102025.19;5043794;28;20025;-69
2022/08/29 00:53:56;;;;;;;21.20;7.18;;;;;;;13.36;100.00;102025.16;5041645;28;20396;-68
2022/08/29 00:56:23;;;;;;;20.17;6.60;;;;;;;13.31;100.00;102016.19;5043637;28;20068;-68
2022/08/29 00:59:02;;;;;;;20.80;7.32;;;;;;;13.28;100.00;102022.38;5042009;28;20041;-69
2022/08/29 01:01:28;;;;;;;18.67;6.65;;;;;;;13.14;100.00;102024.84;5043029;28;20051;-67
2022/08/29 01:03:53;;;;;;;17.80;6.20;;;;;;;13.05;100.00;102032.72;5042368;28;20036;-69
2022/08/29 01:06:20;;;;;;;20.02;6.68;;;;;;;13.02;100.00;102024.72;5043988;28;20029;-69
2022/08/29 01:08:46;;;;;;;19.13;6.60;;;;;;;13.02;100.00;102019.41;5041583;28;20029;-68
2022/08/29 01:13:59;;;;;;;19.05;6.65;;;;;;;12.87;100.00;102030.69;5039835;28;20044;-68
2022/08/29 01:16:26;;;;;;;20.90;7.53;;;;;;;12.77;100.00;102039.41;5042654;28;20030;-69
2022/08/29 01:18:57;;;;;;;19.48;6.68;;;;;;;12.65;100.00;102034.81;5043758;28;20111;-68
2022/08/29 01:21:33;;;;;;;20.35;6.88;;;;;;;12.62;100.00;102038.31;5042182;28;20033;-68
2022/08/29 01:23:59;;;;;;;20.40;7.47;;;;;;;12.53;100.00;102036.41;5042772;28;20036;-68
2022/08/29 01:26:29;;;;;;;19.63;6.88;;;;;;;12.48;100.00;102038.09;5042174;28;20022;-68
2022/08/29 01:28:55;;;;;;;20.15;7.50;;;;;;;12.39;100.00;102030.00;5043190;28;20048;-68
2022/08/29 01:31:25;;;;;;;20.35;8.10;;;;;;;12.30;100.00;102037.81;5041551;28;20095;-68
2022/08/29 01:33:58;;;;;;;20.40;8.15;;;;;;;12.25;100.00;102039.50;5043177;28;20031;-68
2022/08/29 01:36:37;;;;;;;22.13;8.95;;;;;;;12.26;100.00;102031.56;5041801;28;20108;-62
2022/08/29 01:39:04;;;;;;;22.88;8.88;;;;;;;12.32;100.00;102036.97;5041966;28;20029;-64
2022/08/29 01:41:31;;;;;;;20.63;8.55;;;;;;;12.46;100.00;102023.91;5042855;28;20095;-61
2022/08/29 01:43:57;;;;;;;21.50;8.20;;;;;;;12.43;100.00;102015.91;5042872;28;20029;-62
2022/08/29 01:46:25;;;;;;;21.48;8.35;;;;;;;12.35;100.00;102021.09;5041664;28;20075;-61
2022/08/29 01:48:51;;;;;;;22.17;8.35;;;;;;;12.27;100.00;102027.16;5046239;28;20112;-62
2022/08/29 01:51:18;;;;;;;20.48;8.13;;;;;;;12.10;100.00;102027.78;5044837;28;20111;-66
2022/08/29 01:53:44;;;;;;;21.95;8.65;;;;;;;12.10;100.00;102022.47;5048368;28;20496;-65
2022/08/29 01:56:19;;;;;;;19.90;7.80;;;;;;;12.14;100.00;102021.63;5044852;28;20040;-66
2022/08/29 01:58:46;;;;;;;20.58;8.00;;;;;;;12.11;100.00;102029.53;5041395;28;20018;-65
2022/08/29 02:01:15;;;;;;;20.58;8.00;;;;;;;12.07;100.00;102027.69;5040725;28;20032;-66
2022/08/29 02:03:41;;;;;;;19.70;7.45;;;;;;;12.09;100.00;102033.94;5041114;28;20029;-65
2022/08/29 02:06:09;;;;;;;20.98;8.02;;;;;;;12.05;100.00;102029.44;5047549;28;20090;-65
2022/08/29 02:08:36;;;;;;;20.15;7.60;;;;;;;12.00;100.00;102028.50;5045398;28;20017;-65
2022/08/29 02:11:01;;;;;;;20.63;7.78;;;;;;;11.99;100.00;102030.22;5046741;28;20034;-65
2022/08/29 02:13:28;;;;;;;21.67;7.95;;;;;;;11.98;100.00;102032.84;5046506;28;20472;-65
2022/08/29 02:15:53;;;;;;;21.08;8.50;;;;;;;11.94;100.00;102028.38;5045522;28;20033;-65
2022/08/29 02:18:19;;;;;;;23.13;8.00;;;;;;;11.89;100.00;102028.25;5047607;28;20376;-65
2022/08/29 02:20:45;;;;;;;21.77;8.27;;;;;;;11.79;100.00;102034.25;5044571;28;20061;-65
2022/08/29 02:23:10;;;;;;;21.83;8.40;;;;;;;11.72;100.00;102038.53;5047590;28;20033;-65
2022/08/29 02:25:42;;;;;;;21.23;8.13;;;;;;;11.68;100.00;102045.53;5045045;28;20415;-64
2022/08/29 02:28:12;;;;;;;21.60;8.70;;;;;;;11.59;100.00;102041.81;5047175;28;20025;-65
2022/08/29 02:30:39;;;;;;;20.30;8.50;;;;;;;11.58;100.00;102050.66;5044846;28;20346;-66
2022/08/29 02:33:05;;;;;;;21.13;8.63;;;;;;;11.49;100.00;102046.94;5046908;28;20026;-66
2022/08/29 02:35:30;;;;;;;21.33;8.50;;;;;;;11.46;100.00;102046.91;5045737;28;20047;-66
2022/08/29 02:37:55;;;;;;;20.88;8.32;;;;;;;11.48;100.00;102049.56;5045253;28;20373;-67
2022/08/29 02:40:21;;;;;;;21.20;8.88;;;;;;;11.61;100.00;102048.06;5046899;28;20024;-67
2022/08/29 02:42:46;;;;;;;20.48;8.70;;;;;;;11.63;100.00;102054.25;5044048;28;20104;-68
2022/08/29 02:45:12;;;;;;;22.10;8.90;;;;;;;11.59;100.00;102053.31;5047123;28;20115;-66
2022/08/29 02:47:37;;;;;;;21.55;8.73;;;;;;;11.64;100.00;102050.75;5044518;28;20029;-68
2022/08/29 02:50:06;;;;;;;21.27;8.80;;;;;;;11.66;100.00;102064.91;5046040;28;20460;-66
2022/08/29 02:52:31;;;;;;;21.67;8.02;;;;;;;11.56;100.00;102047.94;5044897;28;20048;-66
2022/08/29 02:54:57;;;;;;;21.33;8.45;;;;;;;11.59;100.00;102055.06;5045670;28;20048;-67
2022/08/29 02:57:22;;;;;;;20.63;8.65;;;;;;;11.54;100.00;102054.97;5046075;28;20555;-67
2022/08/29 02:59:48;;;;;;;20.58;8.50;;;;;;;11.55;100.00;102053.22;5042457;28;20029;-66
2022/08/29 03:02:13;;;;;;;21.00;8.57;;;;;;;11.54;100.00;102057.63;5047231;28;20111;-67
2022/08/29 03:04:38;;;;;;;20.95;8.82;;;;;;;11.48;100.00;102054.88;5044023;28;20048;-66
2022/08/29 03:07:04;;;;;;;21.85;9.23;;;;;;;11.38;100.00;102052.91;5046092;28;20479;-67
2022/08/29 03:09:30;;;;;;;21.00;8.98;;;;;;;11.30;100.00;102052.72;5044944;28;20036;-65
2022/08/29 03:11:55;;;;;;;21.45;8.73;;;;;;;11.27;100.00;102050.00;5044522;28;20029;-66
2022/08/29 03:14:21;;;;;;;20.98;8.90;;;;;;;11.26;100.00;102050.91;5046517;28;20098;-67
2022/08/29 03:16:46;;;;;;;21.77;9.30;;;;;;;11.27;100.00;102047.38;5043402;28;20032;-67
2022/08/29 03:19:11;;;;;;;22.55;9.15;;;;;;;11.32;100.00;102048.38;5039220;28;20022;-67
2022/08/29 03:21:37;;;;;;;22.05;8.85;;;;;;;11.41;100.00;102052.94;5046095;28;20388;-65
2022/08/29 03:24:03;;;;;;;22.60;8.90;;;;;;;11.41;100.00;102053.84;5044670;28;20017;-63
2022/08/29 03:26:28;;;;;;;21.48;8.48;;;;;;;11.47;100.00;102048.66;5044786;28;20100;-62
2022/08/29 03:28:53;;;;;;;21.02;8.20;;;;;;;11.50;100.00;102043.44;5045662;28;20017;-65
2022/08/29 03:31:19;;;;;;;20.75;8.05;;;;;;;11.41;100.00;102045.00;5043082;28;20477;-65
2022/08/29 03:33:44;;;;;;;22.23;8.60;;;;;;;11.37;100.00;102035.22;5046568;28;20087;-66
2022/08/29 03:36:10;;;;;;;20.13;8.52;;;;;;;11.33;100.00;102039.56;5043361;28;20065;-66
2022/08/29 03:38:37;;;;;;;21.40;9.10;;;;;;;11.28;100.00;102035.94;5044526;28;20037;-64
2022/08/29 03:41:03;;;;;;;21.10;8.93;;;;;;;11.24;100.00;102034.97;5043980;28;20491;-65
2022/08/29 03:43:29;;;;;;;21.42;9.00;;;;;;;11.22;100.00;102026.09;5044619;28;20030;-62
2022/08/29 03:45:54;;;;;;;21.35;8.80;;;;;;;11.13;100.00;102026.81;5044865;28;20032;-62
2022/08/29 03:48:19;;;;;;;22.08;8.70;;;;;;;11.12;100.00;102019.72;5043195;28;20108;-64
2022/08/29 03:50:45;;;;;;;20.92;8.63;;;;;;;11.01;100.00;102004.47;5046036;28;20476;-64
2022/08/29 03:53:10;;;;;;;20.48;8.35;;;;;;;10.93;100.00;102006.97;5042564;28;20049;-64
2022/08/29 03:55:36;;;;;;;20.88;8.80;;;;;;;11.01;100.00;102015.97;5045554;28;20092;-64
2022/08/29 03:58:01;;;;;;;20.90;8.90;;;;;;;11.06;100.00;102014.31;5044158;28;20086;-62
2022/08/29 04:00:27;;;;;;;21.58;9.18;;;;;;;11.12;100.00;102002.97;5044006;28;20482;-63
2022/08/29 04:02:54;;;;;;;22.00;8.63;;;;;;;11.17;100.00;102006.59;5045196;28;20028;-65
2022/08/29 04:05:19;;;;;;;22.90;9.45;;;;;;;11.05;100.00;102001.03;5042614;28;20026;-64
2022/08/29 04:07:49;;;;;;;22.50;8.98;;;;;;;10.96;100.00;101997.34;5045672;28;20467;-63
2022/08/29 04:10:27;;;;;;;21.00;9.40;;;;;;;10.92;100.00;102006.09;5038511;28;20029;-63
2022/08/29 04:12:54;;;;;;;21.35;8.82;;;;;;;10.90;100.00;102013.09;5040560;28;20022;-60
2022/08/29 04:15:19;;;;;;;22.20;8.90;;;;;;;10.90;100.00;102013.09;5045052;28;20064;-61
2022/08/29 04:17:45;;;;;;;22.27;8.75;;;;;;;10.81;100.00;102019.06;5042307;28;20437;-63
2022/08/29 04:20:12;;;;;;;21.55;8.48;;;;;;;10.82;100.00;102020.88;5045512;28;20498;-61
2022/08/29 04:22:40;;;;;;;21.05;8.80;;;;;;;10.79;100.00;102019.88;5042907;28;20041;-61
2022/08/29 04:25:08;;;;;;;20.15;8.20;;;;;;;10.78;100.00;102021.66;5044551;28;20032;-61
2022/08/29 04:27:35;;;;;;;21.25;8.95;;;;;;;10.77;100.00;102021.63;5042264;28;20036;-60
2022/08/29 04:30:06;;;;;;;20.58;8.60;;;;;;;10.72;100.00;102018.00;5043631;28;20057;-62
2022/08/29 04:32:31;;;;;;;21.05;8.70;;;;;;;10.72;100.00;102018.88;5043599;28;20067;-63
2022/08/29 04:34:57;;;;;;;22.40;8.95;;;;;;;10.70;100.00;102020.56;5043214;28;20119;-61
2022/08/29 04:37:23;;;;;;;21.75;8.98;;;;;;;10.60;100.00;102023.88;5044522;28;20083;-61
2022/08/29 04:39:49;;;;;;;21.05;8.80;;;;;;;10.62;100.00;102030.09;5041863;28;20017;-60
2022/08/29 04:42:16;;;;;;;22.27;8.60;;;;;;;10.66;100.00;102031.97;5045598;28;20095;-60
2022/08/29 04:44:41;;;;;;;21.30;8.25;;;;;;;10.75;100.00;102032.16;5041641;28;20026;-60
2022/08/29 04:47:07;;;;;;;20.98;8.25;;;;;;;10.73;100.00;102031.25;5042778;28;20148;-66
2022/08/29 04:49:32;;;;;;;21.02;8.23;;;;;;;10.74;100.00;102027.72;5043152;28;20049;-67
2022/08/29 04:51:57;;;;;;;21.13;8.32;;;;;;;10.75;100.00;102033.94;5042580;28;20049;-66
2022/08/29 04:54:22;;;;;;;21.40;8.70;;;;;;;10.75;100.00;102028.63;5043410;28;20036;-67
2022/08/29 04:56:48;;;;;;;20.35;7.85;;;;;;;10.77;100.00;102033.06;5041673;28;20030;-66
2022/08/29 04:59:15;;;;;;;22.98;8.10;;;;;;;10.76;100.00;102033.03;5044690;28;20029;-67
2022/08/29 05:01:40;;;;;;;21.08;8.02;;;;;;;10.65;100.00;102040.75;5041703;28;20137;-67
2022/08/29 05:04:06;;;;;;;21.60;8.50;;;;;;;10.63;100.00;102040.72;5043799;28;20488;-67
2022/08/29 05:06:31;;;;;;;20.25;8.10;;;;;;;10.66;100.00;102037.25;5042720;28;20044;-67
2022/08/29 05:08:56;;;;;;;22.67;8.40;;;;;;;10.75;100.00;102033.94;5042561;28;20025;-66
2022/08/29 05:11:22;;;;;;;20.98;7.78;;;;;;;10.79;100.00;102031.38;5043904;28;20036;-67
2022/08/29 05:13:47;;;;;;;21.05;8.32;;;;;;;10.89;100.00;102029.84;5041307;28;20100;-68
2022/08/29 05:16:15;;;;;;;21.60;8.90;;;;;;;10.88;100.00;102029.78;5037123;28;20048;-66
2022/08/29 05:18:43;;;;;;;21.80;8.27;;;;;;;10.90;100.00;102046.59;5044333;28;20025;-67
2022/08/29 05:21:08;;;;;;;22.08;8.48;;;;;;;10.95;100.00;102043.19;5041668;28;20453;-70
2022/08/29 05:23:34;;;;;;;20.52;8.13;;;;;;;10.99;100.00;102041.50;5042669;28;20045;-71
2022/08/29 05:26:02;;;;;;;22.63;8.50;;;;;;;11.08;100.00;102049.66;5042685;28;20020;-71
2022/08/29 05:28:29;;;;;;;21.33;8.05;;;;;;;11.12;100.00;102055.88;5042317;28;20021;-63
2022/08/29 05:30:55;;;;;;;21.83;8.50;;;;;;;11.22;100.00;102057.88;5043344;28;20025;-61
2022/08/29 05:33:21;;;;;;;21.02;8.90;;;;;;;11.31;100.00;102062.47;5041084;28;20037;-61
2022/08/29 05:35:46;;;;;;;20.58;8.73;;;;;;;11.38;100.00;102063.50;5044349;28;20076;-65
2022/08/29 05:38:13;;;;;;;21.95;8.52;;;;;;;11.47;100.00;102067.19;5041037;28;20018;-65
2022/08/29 05:40:39;;;;;;;22.10;8.95;;;;;;;11.50;100.00;102074.31;5043805;28;20035;-62
2022/08/29 05:43:05;;;;;;;21.83;8.65;;;;;;;11.61;100.00;102074.53;5036306;28;20037;-61
2022/08/29 05:45:31;;;;;;;22.70;8.57;;;;;;;11.62;100.00;102065.72;5037881;28;20029;-60
2022/08/29 05:48:01;;;;;;;21.67;8.43;;;;;;;11.79;100.00;102069.56;5030959;28;20026;-60
2022/08/29 05:50:27;;;;;;;20.35;8.10;;;;;;;11.91;100.00;102073.31;5035245;28;20108;-59
2022/08/29 05:52:52;;;;;;;20.48;8.65;;;;;;;11.92;100.00;102072.47;5031788;28;20136;-59
2022/08/29 05:55:17;;;;;;;21.02;8.60;;;;;;;12.04;100.00;102078.00;5035877;28;20040;-60
2022/08/29 05:57:43;;;;;;;20.90;8.25;;;;;;;12.11;100.00;102074.59;5035057;28;20033;-59
2022/08/29 06:00:09;;;;;;;21.55;8.43;;;;;;;12.22;100.00;102077.47;5035105;28;20388;-60
2022/08/29 06:02:34;;;;;;;21.13;8.38;;;;;;;12.36;100.00;102069.72;5030371;28;20029;-60
2022/08/29 06:04:59;;;;;;;22.40;8.73;;;;;;;12.51;100.00;102077.06;5032306;28;20507;-59
2022/08/29 06:07:25;;;;;;;23.23;9.20;;;;;;;12.56;100.00;102078.00;5035443;28;20026;-60
2022/08/29 06:09:51;;;;;;;21.10;8.40;;;;;;;12.54;100.00;102079.75;5031427;28;20125;-61
2022/08/29 06:12:17;;;;;;;23.92;8.55;;;;;;;12.64;100.00;102079.03;5035146;28;20098;-61
2022/08/29 06:14:42;;;;;;;21.77;8.20;;;;;;;12.79;100.00;102082.78;5030630;28;20021;-61
2022/08/29 06:17:08;;;;;;;22.50;8.40;;;;;;;12.87;100.00;102084.69;5029717;28;20013;-61
2022/08/29 06:19:33;;;;;;;21.48;8.13;;;;;;;12.96;100.00;102083.00;5031580;28;20029;-60
2022/08/29 06:22:04;;;;;;;21.35;7.93;;;;;;;13.02;100.00;102083.13;5031712;28;20018;-60
2022/08/29 06:24:31;;;;;;;20.67;8.52;;;;;;;13.11;100.00;102085.88;5029875;28;20025;-60
2022/08/29 06:26:57;;;;;;;20.50;8.50;;;;;;;13.02;100.00;102094.63;5032342;28;20026;-60
2022/08/29 06:29:23;;;;;;;20.70;8.52;;;;;;;13.12;100.00;102093.00;5031113;28;20032;-60
2022/08/29 06:31:48;;;;;;;23.77;8.95;;;;;;;13.14;100.00;102088.56;5027263;28;20025;-60
2022/08/29 06:34:13;;;;;;;21.70;8.63;;;;;;;13.26;100.00;102093.16;5035461;28;20025;-64
2022/08/29 06:36:39;;;;;;;22.00;8.48;;;;;;;13.37;100.00;102090.69;5036251;28;20025;-64
2022/08/29 06:39:09;;;;;;;21.30;9.13;;;;;;;13.44;100.00;102095.19;5032464;28;20029;-63
2022/08/29 06:41:36;;;;;;;21.73;9.30;;;;;;;13.49;100.00;102082.84;5035472;28;20108;-63
2022/08/29 06:44:02;;;;;;;22.17;8.98;;;;;;;13.62;100.00;102089.22;5033696;28;20040;-63
2022/08/29 06:46:30;;;;;;;22.58;9.50;;;;;;;13.76;100.00;102102.63;5032623;28;20029;-65
2022/08/29 06:48:57;;;;;;;20.67;9.20;;;;;;;13.72;100.00;102101.72;5032879;28;20032;-61
2022/08/29 06:51:23;;;;;;;22.58;9.77;;;;;;;13.84;100.00;102102.75;5033118;28;20036;-68
2022/08/29 06:53:49;;;;;;;22.38;9.82;;;;;;;13.94;100.00;102116.13;5035161;28;20382;-64
2022/08/29 06:56:14;;;;;;;21.17;9.38;;;;;;;14.03;100.00;102111.78;5041217;28;20025;-65
2022/08/29 06:58:40;;;;;;;21.05;9.25;;;;;;;14.23;100.00;102112.88;5032247;28;20061;-62
2022/08/29 07:01:12;;;;;;;21.35;9.32;;;;;;;14.44;100.00;102113.94;5033734;28;20036;-61
2022/08/29 07:03:38;;;;;;;21.75;9.05;;;;;;;14.62;100.00;102110.56;5031200;28;20040;-60
2022/08/29 07:06:04;;;;;;;22.70;8.85;;;;;;;14.76;100.00;102102.69;5037838;28;20036;-62
2022/08/29 07:08:30;;;;;;;22.50;9.40;;;;;;;14.97;100.00;102108.16;5034615;28;20030;-60
2022/08/29 07:10:56;;;;;;;21.98;8.90;;;;;;;15.13;100.00;102106.47;5040943;28;20098;-60
2022/08/29 07:13:21;;;;;;;20.70;9.13;;;;;;;15.36;100.00;102110.13;5034089;28;20068;-60
2022/08/29 07:15:46;;;;;;;22.42;8.70;;;;;;;15.73;100.00;102115.59;5037165;28;20108;-61
2022/08/29 07:18:12;;;;;;;21.38;8.30;;;;;;;16.01;100.00;102104.13;5034305;28;20146;-62
2022/08/29 07:20:40;;;;;;;20.95;8.00;;;;;;;16.25;100.00;102105.09;5038167;28;20029;-65
2022/08/29 07:23:06;;;;;;;20.95;8.10;;;;;;;16.49;100.00;102105.97;5033926;28;20384;-60
2022/08/29 07:25:32;;;;;;;22.02;7.80;;;;;;;16.68;100.00;102099.72;5037767;28;20021;-61
2022/08/29 07:27:57;;;;;;;20.80;7.70;;;;;;;16.92;100.00;102100.63;5036228;28;20032;-61
2022/08/29 07:30:23;;;;;;;20.75;7.50;;;;;;;17.13;100.00;102107.66;5035668;28;20104;-60
2022/08/29 07:32:49;;;;;;;20.27;7.20;;;;;;;17.37;100.00;102097.78;5035035;28;20026;-65
2022/08/29 07:35:15;;;;;;;21.27;7.18;;;;;;;17.56;100.00;102102.16;5036236;28;20022;-62
2022/08/29 07:37:41;;;;;;;21.75;7.07;;;;;;;17.71;100.00;102103.88;5036840;28;20397;-61
2022/08/29 07:40:09;;;;;;;19.38;6.57;;;;;;;17.87;100.00;102096.66;5035930;28;20029;-60
2022/08/29 07:42:36;;;;;;;18.73;6.28;;;;;;;17.98;100.00;102093.91;5033273;28;20116;-61
2022/08/29 07:45:03;;;;;;;21.88;6.20;;;;;;;17.99;100.00;102084.13;5035624;28;20021;-65
2022/08/29 07:47:29;;;;;;;19.55;5.50;;;;;;;18.04;100.00;102088.56;5029925;28;20033;-61
2022/08/29 07:49:54;;;;;;;19.88;6.10;;;;;;;18.18;100.00;102096.47;5036303;28;20338;-62
2022/08/29 07:52:20;;;;;;;18.20;5.50;;;;;;;18.25;98.24;102102.66;5033785;28;20191;-65
2022/08/29 07:54:45;;;;;;;19.55;5.85;;;;;;;18.40;100.00;102097.16;5037094;28;20036;-68
2022/08/29 07:57:11;;;;;;;20.70;5.43;;;;;;;18.52;98.73;102097.97;5033485;28;20025;-67
2022/08/29 07:59:37;;;;;;;18.95;4.93;;;;;;;18.64;96.21;102089.84;5034301;28;20028;-68
2022/08/29 08:02:02;;;;;;;17.42;4.38;;;;;;;18.82;91.85;102096.78;5034875;28;20388;-68
2022/08/29 08:04:28;;;;;;;20.50;5.00;;;;;;;18.95;90.38;102102.94;5031155;28;20025;-68
2022/08/29 08:06:54;;;;;;;17.92;4.65;;;;;;;18.91;88.67;102095.84;5037165;28;20029;-61
2022/08/29 08:09:19;;;;;;;18.42;4.55;;;;;;;18.93;88.62;102094.94;5037131;28;20024;-74
2022/08/29 08:11:45;;;;;;;18.20;4.60;;;;;;;18.94;88.43;102098.47;5033619;28;20062;-78
2022/08/29 08:14:11;;;;;;;16.77;4.40;;;;;;;18.93;89.05;102097.59;5034894;28;20029;-79
2022/08/29 08:16:37;;;;;;;18.27;4.30;;;;;;;19.08;84.79;102096.53;5033667;28;20022;-63
2022/08/29 08:19:02;;;;;;;18.05;4.50;;;;;;;19.20;82.82;102095.50;5034427;28;20295;-62
2022/08/29 08:21:29;;;;;;;16.20;4.38;;;;;;;19.41;83.26;102094.38;5036240;28;20026;-64
2022/08/29 08:23:54;;;;;;;17.40;4.28;;;;;;;19.44;81.99;102101.47;5033001;28;20053;-65
2022/08/29 08:26:20;;;;;;;15.73;4.10;;;;;;;19.47;81.38;102098.75;5038793;28;20112;-64
2022/08/29 08:28:46;;;;;;;17.45;4.50;;;;;;;19.48;81.17;102096.06;5033421;28;20025;-66
2022/08/29 08:31:13;;;;;;;16.15;4.25;;;;;;;19.57;78.72;102094.16;5034491;28;20126;-62
2022/08/29 08:33:39;;;;;;;17.75;4.32;;;;;;;19.61;77.74;102095.88;5032783;28;20026;-62
2022/08/29 08:36:24;;;;;;;18.60;4.30;;;;;;;19.66;80.51;102102.09;5032720;28;20487;-60
2022/08/29 08:38:52;;;;;;;16.33;4.10;;;;;;;19.61;79.13;102098.56;5031342;28;20040;-62
2022/08/29 08:41:26;;;;;;;14.30;4.10;;;;;;;19.69;79.73;102104.72;5036717;28;20033;-61
2022/08/29 08:43:58;;;;;;;16.83;4.28;;;;;;;19.61;77.53;102104.81;5029832;28;20123;-60
2022/08/29 08:46:36;;;;;;;15.32;3.95;;;;;;;19.64;77.91;102098.53;5032753;28;20029;-62
2022/08/29 08:49:09;;;;;;;15.65;3.80;;;;;;;19.83;76.33;102089.38;5032946;28;20503;-60
2022/08/29 08:51:38;;;;;;;16.20;4.20;;;;;;;20.17;75.87;102096.00;5035398;28;20361;-60
2022/08/29 08:54:15;;;;;;;17.33;4.25;;;;;;;20.54;76.96;102085.50;5036170;28;20072;-60
2022/08/29 08:56:45;;;;;;;17.20;4.30;;;;;;;20.76;73.12;102089.66;5032146;28;20044;-61
2022/08/29 08:59:20;;;;;;;17.08;4.75;;;;;;;20.52;71.10;102090.03;5035607;28;20408;-61
2022/08/29 09:01:57;;;;;;;17.95;4.70;;;;;;;20.26;71.72;102097.66;5031992;28;20037;-60
2022/08/29 09:04:36;;;;;;;18.05;4.70;;;;;;;20.18;73.45;102092.38;5037664;28;20022;-60
2022/08/29 09:07:25;;;;;;;17.10;4.50;;;;;;;20.16;71.79;102102.28;5034164;28;20108;-60
2022/08/29 09:10:09;;;;;;;18.55;4.70;;;;;;;20.36;70.26;102097.47;5032777;28;20518;-60
2022/08/29 09:12:53;;;;;;;16.27;4.60;;;;;;;20.42;69.87;102100.97;5030245;28;20029;-60
2022/08/29 09:15:22;;;;;;;16.92;4.60;;;;;;;20.59;70.53;102106.03;5034135;28;20037;-61
2022/08/29 09:17:59;;;;;;;17.00;4.80;;;;;;;21.08;68.58;102107.84;5031740;28;20041;-61
2022/08/29 09:20:28;;;;;;;18.38;4.80;;;;;;;21.14;66.22;102106.84;5028310;28;20037;-60
2022/08/29 09:23:00;;;;;;;17.05;4.43;;;;;;;20.87;67.19;102104.66;5035680;28;20037;-61
2022/08/29 09:25:28;;;;;;;18.45;4.82;;;;;;;20.41;67.05;102109.94;5034019;28;20022;-61
2022/08/29 09:27:57;;;;;;;17.30;4.50;;;;;;;20.22;68.46;102106.66;5040642;28;20017;-61
2022/08/29 09:30:25;;;;;;;17.63;4.45;;;;;;;20.41;68.68;102110.81;5040797;28;20048;-65
2022/08/29 09:33:03;;;;;;;17.50;4.50;;;;;;;20.66;66.67;102116.69;5037319;28;20640;-61
2022/08/29 09:35:39;;;;;;;17.65;4.40;;;;;;;20.69;65.82;102123.78;5039266;28;20112;-62
2022/08/29 09:38:08;;;;;;;16.50;4.20;;;;;;;20.72;67.00;102127.31;5042497;28;20028;-63
2022/08/29 09:40:50;;;;;;;17.33;4.40;;;;;;;20.72;66.39;102123.72;5042238;28;20076;-61
2022/08/29 09:43:20;;;;;;;16.13;4.13;;;;;;;20.46;65.93;102118.78;5041143;28;20027;-62
2022/08/29 09:46:04;;;;;;;15.07;4.25;;;;;;;20.46;67.48;102117.00;5044367;28;20420;-70
2022/08/29 09:48:30;;;;;;;17.13;4.50;;;;;;;20.40;67.01;102113.53;5039600;28;20056;-70
2022/08/29 09:51:21;;;;;;;19.25;4.53;;;;;;;20.51;67.52;102107.06;5043716;28;20021;-60
2022/08/29 09:53:47;;;;;;;17.63;4.40;;;;;;;20.59;66.52;102104.25;5044029;28;20416;-67
2022/08/29 09:56:24;;;;;;;17.75;4.53;;;;;;;20.61;67.39;102106.91;5041298;28;20025;-60
2022/08/29 09:59:03;;;;;;;18.77;4.90;;;;;;;21.32;66.79;102102.88;5036788;28;20029;-60
2022/08/29 10:01:31;;;;;;;16.25;4.40;;;;;;;23.81;50.46;102108.22;5039038;28;20090;-61
2022/08/29 10:04:00;;;;;;;18.35;4.80;;;;;;;24.21;45.50;102103.38;5043592;28;20503;-61
2022/08/29 10:06:28;;;;;;;17.20;4.53;;;;;;;23.25;46.29;102092.81;5040709;28;20033;-62
2022/08/29 10:09:22;;;;;;;17.27;4.70;;;;;;;22.52;48.40;102094.75;5044705;28;20095;-65
2022/08/29 10:11:53;;;;;;;18.00;4.63;;;;;;;21.92;49.52;102102.47;5040352;28;20038;-61
2022/08/29 10:14:33;;;;;;;18.00;4.65;;;;;;;22.31;49.85;102109.66;5040338;28;20476;-65
2022/08/29 10:19:54;;;;;;;17.83;4.40;;;;;;;23.41;45.78;102107.59;4986490;28;20034;-66
2022/08/29 10:22:38;;;;;;;18.75;4.43;;;;;;;24.75;43.46;102109.69;4983436;28;20078;-62
2022/08/29 10:25:15;;;;;;;18.52;4.45;;;;;;;24.64;41.44;102110.94;4984769;28;20043;-60
2022/08/29 10:27:59;;;;;;;16.98;4.57;;;;;;;24.56;42.68;102109.41;4983902;28;20141;-60
2022/08/29 10:30:43;;;;;;;18.20;4.90;;;;;;;24.16;43.01;102111.63;4986096;28;20054;-60
2022/08/29 10:33:39;;;;;;;17.15;4.80;;;;;;;26.37;37.91;102103.47;4985188;28;20490;-60
2022/08/29 10:36:18;;;;;;;16.75;4.35;;;;;;;28.96;34.04;102099.31;4984649;28;20421;-69
2022/08/29 10:38:46;;;;;;;17.88;4.50;;;;;;;30.49;30.03;102090.72;4983889;28;20181;-68
2022/08/29 10:41:29;;;;;;;16.98;4.60;;;;;;;31.64;30.24;102095.41;4985235;28;20042;-69
2022/08/29 10:44:16;;;;;;;17.35;4.40;;;;;;;31.90;27.17;102090.94;4982891;28;20039;-68
2022/08/29 10:47:19;;;;;;;17.63;4.60;;;;;;;32.48;28.04;102093.47;4983573;28;20035;-68
2022/08/29 10:50:18;;;;;;;16.13;4.30;;;;;;;32.82;27.38;102092.03;4985762;28;20030;-69
2022/08/29 10:53:08;;;;;;;17.45;4.60;;;;;;;32.78;26.74;102087.75;4985412;28;20046;-69
2022/08/29 10:56:00;;;;;;;16.38;4.20;;;;;;;31.36;28.12;102077.19;4984584;28;20042;-69
2022/08/29 10:58:44;;;;;;;15.00;4.30;;;;;;;32.86;27.36;102075.38;5038534;28;20029;-69
2022/08/29 11:01:31;;;;;;;15.60;4.20;;;;;;;33.93;25.99;102076.72;5040792;28;20044;-67
2022/08/29 11:04:21;;;;;;;16.13;4.18;;;;;;;34.77;24.38;102074.78;5043748;28;20025;-69
2022/08/29 11:06:55;;;;;;;15.80;4.18;;;;;;;34.98;23.17;102071.34;5042707;28;20080;-69
2022/08/29 11:09:27;;;;;;;17.73;4.40;;;;;;;33.94;23.97;102065.63;5044530;28;20036;-67
2022/08/29 11:12:20;;;;;;;17.30;4.30;;;;;;;33.50;24.67;102057.00;5045794;28;20033;-70
2022/08/29 11:14:51;;;;;;;16.45;4.40;;;;;;;32.17;25.26;102060.03;5042540;28;20030;-69
2022/08/29 11:17:20;;;;;;;16.02;4.35;;;;;;;32.09;25.51;102068.72;5045486;28;20051;-69
2022/08/29 11:20:11;;;;;;;16.95;4.07;;;;;;;33.29;25.44;102066.81;5044095;28;20060;-68
2022/08/29 11:22:53;;;;;;;15.17;4.00;;;;;;;34.29;24.31;102052.97;5039749;28;20029;-68
2022/08/29 11:25:19;;;;;;;13.90;3.75;;;;;;;35.65;21.95;102053.97;5043155;28;20029;-69
2022/08/29 11:28:22;;;;;;;16.13;3.90;;;;;;;35.69;22.21;102055.44;5045245;28;20440;-69